Martin City, Montana
Current Conditions -  °F | °C
As of 4:55 AM on Thursday 23 Oct 2014 (Local Time) from KGPI Reporting Station
Overcast Overcast  
Wind Chill: 48°   Ceiling: 4700
Heat Index: 48°   Visibility: 10mi
Dew Point: 44°   Wind: 0mph
Humidity: 86%   Direction: NA
Pressure: 29.82"   Gusts: NA
Location:  48.39°N, 114.04°W
Report Text: KGPI 231055Z AUTO 00000KT 10SM OVC047 09/07 A2982 RMK AO2 RAB07E43 SLP097 P0000 T00890067
Loading
Personal Weather Stations






























Interactive Weather Map
Tropical Storm Tracking
New forecast layout! Learn more

10-Day Weather Forecast

Advertisements
Track Severe Weather on mobile